sensor_id;sensor_type;location;lat;lon;timestamp;P1;durP1;ratioP1;P2;durP2;ratioP2
34296;SDS011;20564;42.902;25.336;2022-12-04T00:01:14;2.22;;;1.58;;
34296;SDS011;20564;42.902;25.336;2022-12-04T00:03:43;2.10;;;0.93;;
34296;SDS011;20564;42.902;25.336;2022-12-04T00:11:06;1.48;;;1.38;;
34296;SDS011;20564;42.902;25.336;2022-12-04T00:13:35;4.15;;;1.48;;
34296;SDS011;20564;42.902;25.336;2022-12-04T00:16:04;2.83;;;1.42;;
34296;SDS011;20564;42.902;25.336;2022-12-04T00:18:33;1.23;;;1.08;;
34296;SDS011;20564;42.902;25.336;2022-12-04T00:21:05;2.95;;;1.30;;
34296;SDS011;20564;42.902;25.336;2022-12-04T00:23:34;2.13;;;1.00;;
34296;SDS011;20564;42.902;25.336;2022-12-04T00:26:08;2.60;;;1.60;;
34296;SDS011;20564;42.902;25.336;2022-12-04T00:28:37;1.85;;;1.35;;
34296;SDS011;20564;42.902;25.336;2022-12-04T00:31:15;4.05;;;2.30;;
34296;SDS011;20564;42.902;25.336;2022-12-04T00:33:44;1.13;;;0.75;;
34296;SDS011;20564;42.902;25.336;2022-12-04T00:36:12;5.07;;;1.33;;
34296;SDS011;20564;42.902;25.336;2022-12-04T00:38:40;0.63;;;0.63;;
34296;SDS011;20564;42.902;25.336;2022-12-04T00:41:09;0.80;;;0.60;;
34296;SDS011;20564;42.902;25.336;2022-12-04T00:43:37;1.48;;;0.85;;
34296;SDS011;20564;42.902;25.336;2022-12-04T00:46:05;1.63;;;1.20;;
34296;SDS011;20564;42.902;25.336;2022-12-04T00:48:32;1.90;;;1.27;;
34296;SDS011;20564;42.902;25.336;2022-12-04T00:51:07;2.78;;;2.05;;
34296;SDS011;20564;42.902;25.336;2022-12-04T00:53:38;3.22;;;1.52;;
34296;SDS011;20564;42.902;25.336;2022-12-04T00:56:07;7.68;;;2.75;;
34296;SDS011;20564;42.902;25.336;2022-12-04T00:58:39;4.35;;;1.35;;
34296;SDS011;20564;42.902;25.336;2022-12-04T01:01:08;2.85;;;1.95;;
34296;SDS011;20564;42.902;25.336;2022-12-04T01:03:44;2.58;;;1.77;;
34296;SDS011;20564;42.902;25.336;2022-12-04T01:08:53;3.00;;;1.50;;
34296;SDS011;20564;42.902;25.336;2022-12-04T01:11:22;2.22;;;1.23;;
34296;SDS011;20564;42.902;25.336;2022-12-04T01:13:51;1.83;;;1.63;;
34296;SDS011;20564;42.902;25.336;2022-12-04T01:16:23;4.40;;;1.35;;
34296;SDS011;20564;42.902;25.336;2022-12-04T01:18:52;2.15;;;1.05;;
34296;SDS011;20564;42.902;25.336;2022-12-04T01:21:19;0.50;;;0.50;;
34296;SDS011;20564;42.902;25.336;2022-12-04T01:23:47;2.08;;;0.70;;
34296;SDS011;20564;42.902;25.336;2022-12-04T01:26:14;2.63;;;1.65;;
34296;SDS011;20564;42.902;25.336;2022-12-04T01:28:42;2.07;;;1.13;;
34296;SDS011;20564;42.902;25.336;2022-12-04T01:31:10;4.47;;;1.53;;
34296;SDS011;20564;42.902;25.336;2022-12-04T01:33:40;1.77;;;0.88;;
34296;SDS011;20564;42.902;25.336;2022-12-04T01:36:09;0.93;;;0.82;;
34296;SDS011;20564;42.902;25.336;2022-12-04T01:38:39;3.05;;;1.15;;
34296;SDS011;20564;42.902;25.336;2022-12-04T01:41:07;3.10;;;0.85;;
34296;SDS011;20564;42.902;25.336;2022-12-04T01:43:36;1.30;;;1.17;;
34296;SDS011;20564;42.902;25.336;2022-12-04T01:46:04;1.60;;;0.88;;
34296;SDS011;20564;42.902;25.336;2022-12-04T01:53:40;0.80;;;0.80;;
34296;SDS011;20564;42.902;25.336;2022-12-04T01:56:09;1.35;;;0.85;;
34296;SDS011;20564;42.902;25.336;2022-12-04T01:58:38;1.27;;;0.63;;
34296;SDS011;20564;42.902;25.336;2022-12-04T02:01:09;0.30;;;0.30;;
34296;SDS011;20564;42.902;25.336;2022-12-04T02:03:37;1.30;;;1.10;;
34296;SDS011;20564;42.902;25.336;2022-12-04T02:06:05;1.17;;;1.00;;
34296;SDS011;20564;42.902;25.336;2022-12-04T02:11:22;2.50;;;1.10;;
34296;SDS011;20564;42.902;25.336;2022-12-04T02:14:12;1.33;;;0.93;;
34296;SDS011;20564;42.902;25.336;2022-12-04T02:17:04;5.53;;;1.00;;
34296;SDS011;20564;42.902;25.336;2022-12-04T02:20:24;0.43;;;0.40;;
34296;SDS011;20564;42.902;25.336;2022-12-04T02:25:26;3.90;;;1.15;;
34296;SDS011;20564;42.902;25.336;2022-12-04T02:28:04;1.15;;;0.65;;
34296;SDS011;20564;42.902;25.336;2022-12-04T02:30:38;0.85;;;0.70;;
34296;SDS011;20564;42.902;25.336;2022-12-04T02:36:10;1.77;;;1.42;;
34296;SDS011;20564;42.902;25.336;2022-12-04T02:38:48;2.05;;;1.05;;
34296;SDS011;20564;42.902;25.336;2022-12-04T02:41:29;0.95;;;0.57;;
34296;SDS011;20564;42.902;25.336;2022-12-04T02:46:53;1.02;;;0.70;;
34296;SDS011;20564;42.902;25.336;2022-12-04T02:49:32;1.00;;;0.85;;
34296;SDS011;20564;42.902;25.336;2022-12-04T02:52:05;0.85;;;0.77;;
34296;SDS011;20564;42.902;25.336;2022-12-04T02:54:38;3.15;;;1.48;;
34296;SDS011;20564;42.902;25.336;2022-12-04T02:57:10;1.35;;;0.65;;
34296;SDS011;20564;42.902;25.336;2022-12-04T02:59:42;2.88;;;0.93;;
34296;SDS011;20564;42.902;25.336;2022-12-04T03:02:13;0.40;;;0.40;;
34296;SDS011;20564;42.902;25.336;2022-12-04T03:04:45;1.25;;;1.10;;
34296;SDS011;20564;42.902;25.336;2022-12-04T03:07:17;1.83;;;0.80;;
34296;SDS011;20564;42.902;25.336;2022-12-04T03:09:51;2.15;;;0.98;;
34296;SDS011;20564;42.902;25.336;2022-12-04T03:12:29;2.35;;;1.10;;
34296;SDS011;20564;42.902;25.336;2022-12-04T03:15:34;1.88;;;1.17;;
34296;SDS011;20564;42.902;25.336;2022-12-04T03:18:26;1.20;;;1.05;;
34296;SDS011;20564;42.902;25.336;2022-12-04T03:20:58;0.77;;;0.57;;
34296;SDS011;20564;42.902;25.336;2022-12-04T03:23:34;1.67;;;0.98;;
34296;SDS011;20564;42.902;25.336;2022-12-04T03:28:45;1.75;;;1.10;;
34296;SDS011;20564;42.902;25.336;2022-12-04T03:31:29;2.55;;;0.90;;
34296;SDS011;20564;42.902;25.336;2022-12-04T03:34:06;1.83;;;0.75;;
34296;SDS011;20564;42.902;25.336;2022-12-04T03:36:36;1.60;;;1.13;;
34296;SDS011;20564;42.902;25.336;2022-12-04T03:39:14;2.30;;;1.02;;
34296;SDS011;20564;42.902;25.336;2022-12-04T03:42:48;2.03;;;1.30;;
34296;SDS011;20564;42.902;25.336;2022-12-04T03:45:02;4.38;;;1.77;;
34296;SDS011;20564;42.902;25.336;2022-12-04T03:47:44;1.30;;;0.45;;
34296;SDS011;20564;42.902;25.336;2022-12-04T03:50:21;1.63;;;1.15;;
34296;SDS011;20564;42.902;25.336;2022-12-04T03:52:58;3.35;;;0.98;;
34296;SDS011;20564;42.902;25.336;2022-12-04T03:55:46;3.40;;;1.27;;
34296;SDS011;20564;42.902;25.336;2022-12-04T03:58:19;1.65;;;0.85;;
34296;SDS011;20564;42.902;25.336;2022-12-04T04:00:52;0.32;;;0.25;;
34296;SDS011;20564;42.902;25.336;2022-12-04T04:03:22;2.60;;;1.38;;
34296;SDS011;20564;42.902;25.336;2022-12-04T04:05:57;3.33;;;1.33;;
34296;SDS011;20564;42.902;25.336;2022-12-04T04:08:30;1.90;;;1.52;;
34296;SDS011;20564;42.902;25.336;2022-12-04T04:13:37;2.22;;;0.98;;
34296;SDS011;20564;42.902;25.336;2022-12-04T04:16:28;2.40;;;1.13;;
34296;SDS011;20564;42.902;25.336;2022-12-04T04:19:17;1.00;;;0.68;;
34296;SDS011;20564;42.902;25.336;2022-12-04T04:22:05;1.37;;;0.77;;
34296;SDS011;20564;42.902;25.336;2022-12-04T04:27:52;0.82;;;0.73;;
34296;SDS011;20564;42.902;25.336;2022-12-04T04:30:20;1.08;;;0.57;;
34296;SDS011;20564;42.902;25.336;2022-12-04T04:32:49;0.70;;;0.43;;
34296;SDS011;20564;42.902;25.336;2022-12-04T04:35:20;1.27;;;0.85;;
34296;SDS011;20564;42.902;25.336;2022-12-04T04:38:00;1.98;;;0.93;;
34296;SDS011;20564;42.902;25.336;2022-12-04T04:40:45;0.17;;;0.17;;
34296;SDS011;20564;42.902;25.336;2022-12-04T04:46:18;0.80;;;0.68;;
34296;SDS011;20564;42.902;25.336;2022-12-04T04:48:51;1.65;;;1.00;;
34296;SDS011;20564;42.902;25.336;2022-12-04T04:51:22;0.77;;;0.28;;
34296;SDS011;20564;42.902;25.336;2022-12-04T04:53:50;1.10;;;0.60;;
34296;SDS011;20564;42.902;25.336;2022-12-04T04:56:21;1.80;;;1.00;;
34296;SDS011;20564;42.902;25.336;2022-12-04T04:58:48;1.60;;;0.85;;
34296;SDS011;20564;42.902;25.336;2022-12-04T05:01:17;6.70;;;0.60;;
34296;SDS011;20564;42.902;25.336;2022-12-04T05:03:47;1.05;;;0.80;;
34296;SDS011;20564;42.902;25.336;2022-12-04T05:06:14;0.98;;;0.32;;
34296;SDS011;20564;42.902;25.336;2022-12-04T05:08:42;1.55;;;0.57;;
34296;SDS011;20564;42.902;25.336;2022-12-04T05:11:10;0.55;;;0.55;;
34296;SDS011;20564;42.902;25.336;2022-12-04T05:13:39;1.20;;;0.73;;
34296;SDS011;20564;42.902;25.336;2022-12-04T05:16:09;0.60;;;0.45;;
34296;SDS011;20564;42.902;25.336;2022-12-04T05:18:38;0.65;;;0.57;;
34296;SDS011;20564;42.902;25.336;2022-12-04T05:21:10;0.32;;;0.32;;
34296;SDS011;20564;42.902;25.336;2022-12-04T05:23:42;0.45;;;0.45;;
34296;SDS011;20564;42.902;25.336;2022-12-04T05:26:10;2.08;;;0.85;;
34296;SDS011;20564;42.902;25.336;2022-12-04T05:28:40;2.72;;;1.38;;
34296;SDS011;20564;42.902;25.336;2022-12-04T05:31:11;1.50;;;0.98;;
34296;SDS011;20564;42.902;25.336;2022-12-04T05:33:42;1.55;;;0.65;;
34296;SDS011;20564;42.902;25.336;2022-12-04T05:36:10;1.65;;;1.10;;
34296;SDS011;20564;42.902;25.336;2022-12-04T05:38:39;4.25;;;1.98;;
34296;SDS011;20564;42.902;25.336;2022-12-04T05:41:06;5.17;;;2.83;;
34296;SDS011;20564;42.902;25.336;2022-12-04T05:43:33;4.35;;;2.92;;
34296;SDS011;20564;42.902;25.336;2022-12-04T05:46:01;4.85;;;2.60;;
34296;SDS011;20564;42.902;25.336;2022-12-04T05:48:30;5.65;;;3.20;;
34296;SDS011;20564;42.902;25.336;2022-12-04T05:50:58;6.38;;;2.45;;
34296;SDS011;20564;42.902;25.336;2022-12-04T05:53:26;3.47;;;1.95;;
34296;SDS011;20564;42.902;25.336;2022-12-04T05:55:56;5.03;;;1.98;;
34296;SDS011;20564;42.902;25.336;2022-12-04T05:58:32;1.95;;;1.17;;
34296;SDS011;20564;42.902;25.336;2022-12-04T06:01:06;2.75;;;1.98;;
34296;SDS011;20564;42.902;25.336;2022-12-04T06:03:41;4.30;;;1.23;;
34296;SDS011;20564;42.902;25.336;2022-12-04T06:06:27;2.80;;;1.80;;
34296;SDS011;20564;42.902;25.336;2022-12-04T06:08:56;3.85;;;1.90;;
34296;SDS011;20564;42.902;25.336;2022-12-04T06:11:35;4.05;;;1.80;;
34296;SDS011;20564;42.902;25.336;2022-12-04T06:14:05;2.15;;;1.02;;
34296;SDS011;20564;42.902;25.336;2022-12-04T06:16:34;1.92;;;1.15;;
34296;SDS011;20564;42.902;25.336;2022-12-04T06:19:08;3.05;;;2.17;;
34296;SDS011;20564;42.902;25.336;2022-12-04T06:21:45;1.63;;;1.00;;
34296;SDS011;20564;42.902;25.336;2022-12-04T06:24:18;0.73;;;0.40;;
34296;SDS011;20564;42.902;25.336;2022-12-04T06:26:48;2.55;;;1.27;;
34296;SDS011;20564;42.902;25.336;2022-12-04T06:29:36;1.90;;;1.40;;
34296;SDS011;20564;42.902;25.336;2022-12-04T06:32:03;1.60;;;1.00;;
34296;SDS011;20564;42.902;25.336;2022-12-04T06:34:30;0.50;;;0.47;;
34296;SDS011;20564;42.902;25.336;2022-12-04T06:36:58;2.33;;;1.67;;
34296;SDS011;20564;42.902;25.336;2022-12-04T06:39:25;1.17;;;0.52;;
34296;SDS011;20564;42.902;25.336;2022-12-04T06:41:52;1.05;;;0.98;;
34296;SDS011;20564;42.902;25.336;2022-12-04T06:44:20;2.47;;;1.52;;
34296;SDS011;20564;42.902;25.336;2022-12-04T06:46:47;1.95;;;1.23;;
34296;SDS011;20564;42.902;25.336;2022-12-04T06:51:42;1.33;;;0.98;;
34296;SDS011;20564;42.902;25.336;2022-12-04T06:54:11;1.90;;;0.90;;
34296;SDS011;20564;42.902;25.336;2022-12-04T06:56:39;1.35;;;0.90;;
34296;SDS011;20564;42.902;25.336;2022-12-04T06:59:06;1.73;;;1.30;;
34296;SDS011;20564;42.902;25.336;2022-12-04T07:01:33;1.30;;;0.93;;
34296;SDS011;20564;42.902;25.336;2022-12-04T07:04:01;2.13;;;1.55;;
34296;SDS011;20564;42.902;25.336;2022-12-04T07:06:31;5.78;;;2.15;;
34296;SDS011;20564;42.902;25.336;2022-12-04T07:09:06;5.30;;;2.05;;
34296;SDS011;20564;42.902;25.336;2022-12-04T07:11:38;3.65;;;1.92;;
34296;SDS011;20564;42.902;25.336;2022-12-04T07:14:06;2.97;;;1.73;;
34296;SDS011;20564;42.902;25.336;2022-12-04T07:16:33;9.75;;;2.15;;
34296;SDS011;20564;42.902;25.336;2022-12-04T07:19:07;7.60;;;2.83;;
34296;SDS011;20564;42.902;25.336;2022-12-04T07:21:35;4.28;;;2.65;;
34296;SDS011;20564;42.902;25.336;2022-12-04T07:24:02;3.05;;;1.45;;
34296;SDS011;20564;42.902;25.336;2022-12-04T07:26:30;5.78;;;2.90;;
34296;SDS011;20564;42.902;25.336;2022-12-04T07:28:57;5.32;;;3.47;;
34296;SDS011;20564;42.902;25.336;2022-12-04T07:31:26;20.55;;;4.38;;
34296;SDS011;20564;42.902;25.336;2022-12-04T07:33:55;3.53;;;2.28;;
34296;SDS011;20564;42.902;25.336;2022-12-04T07:36:23;2.55;;;1.55;;
34296;SDS011;20564;42.902;25.336;2022-12-04T07:38:53;5.00;;;2.42;;
34296;SDS011;20564;42.902;25.336;2022-12-04T07:41:21;3.35;;;1.98;;
34296;SDS011;20564;42.902;25.336;2022-12-04T07:43:48;3.88;;;1.63;;
34296;SDS011;20564;42.902;25.336;2022-12-04T07:46:16;2.05;;;1.45;;
34296;SDS011;20564;42.902;25.336;2022-12-04T07:48:45;3.88;;;1.63;;
34296;SDS011;20564;42.902;25.336;2022-12-04T07:53:42;2.28;;;1.13;;
34296;SDS011;20564;42.902;25.336;2022-12-04T07:56:10;1.95;;;1.30;;
34296;SDS011;20564;42.902;25.336;2022-12-04T07:58:38;3.20;;;1.88;;
34296;SDS011;20564;42.902;25.336;2022-12-04T08:03:34;1.63;;;1.13;;
34296;SDS011;20564;42.902;25.336;2022-12-04T08:06:02;1.43;;;1.03;;
34296;SDS011;20564;42.902;25.336;2022-12-04T08:08:30;2.38;;;1.48;;
34296;SDS011;20564;42.902;25.336;2022-12-04T08:10:58;3.10;;;1.20;;
34296;SDS011;20564;42.902;25.336;2022-12-04T08:13:26;2.92;;;1.67;;
34296;SDS011;20564;42.902;25.336;2022-12-04T08:15:53;2.00;;;1.40;;
34296;SDS011;20564;42.902;25.336;2022-12-04T08:18:20;6.25;;;2.78;;
34296;SDS011;20564;42.902;25.336;2022-12-04T08:20:47;4.97;;;2.10;;
34296;SDS011;20564;42.902;25.336;2022-12-04T08:23:14;3.43;;;2.03;;
34296;SDS011;20564;42.902;25.336;2022-12-04T08:25:41;3.95;;;2.10;;
34296;SDS011;20564;42.902;25.336;2022-12-04T08:28:08;4.35;;;2.95;;
34296;SDS011;20564;42.902;25.336;2022-12-04T08:30:35;3.53;;;2.38;;
34296;SDS011;20564;42.902;25.336;2022-12-04T08:33:02;3.53;;;2.63;;
34296;SDS011;20564;42.902;25.336;2022-12-04T08:35:29;5.63;;;3.42;;
34296;SDS011;20564;42.902;25.336;2022-12-04T08:37:56;14.77;;;7.63;;
34296;SDS011;20564;42.902;25.336;2022-12-04T08:40:23;7.45;;;5.28;;
34296;SDS011;20564;42.902;25.336;2022-12-04T08:42:50;5.57;;;3.83;;
34296;SDS011;20564;42.902;25.336;2022-12-04T08:45:17;3.80;;;2.15;;
34296;SDS011;20564;42.902;25.336;2022-12-04T08:47:44;4.23;;;2.20;;
34296;SDS011;20564;42.902;25.336;2022-12-04T08:50:17;4.22;;;2.22;;
34296;SDS011;20564;42.902;25.336;2022-12-04T08:52:44;2.40;;;1.40;;
34296;SDS011;20564;42.902;25.336;2022-12-04T08:55:12;2.92;;;2.53;;
34296;SDS011;20564;42.902;25.336;2022-12-04T08:57:38;0.55;;;0.55;;
34296;SDS011;20564;42.902;25.336;2022-12-04T09:00:06;3.42;;;1.65;;
34296;SDS011;20564;42.902;25.336;2022-12-04T09:02:33;6.32;;;2.22;;
34296;SDS011;20564;42.902;25.336;2022-12-04T09:07:28;3.45;;;2.13;;
34296;SDS011;20564;42.902;25.336;2022-12-04T09:09:55;2.63;;;1.40;;
34296;SDS011;20564;42.902;25.336;2022-12-04T09:12:25;3.75;;;2.30;;
34296;SDS011;20564;42.902;25.336;2022-12-04T09:14:52;3.88;;;1.77;;
34296;SDS011;20564;42.902;25.336;2022-12-04T09:17:19;5.30;;;2.53;;
34296;SDS011;20564;42.902;25.336;2022-12-04T09:19:45;6.90;;;2.83;;
34296;SDS011;20564;42.902;25.336;2022-12-04T09:22:13;4.10;;;2.75;;
34296;SDS011;20564;42.902;25.336;2022-12-04T09:24:40;3.65;;;2.55;;
34296;SDS011;20564;42.902;25.336;2022-12-04T09:27:07;4.17;;;2.07;;
34296;SDS011;20564;42.902;25.336;2022-12-04T09:29:40;4.35;;;2.80;;
34296;SDS011;20564;42.902;25.336;2022-12-04T09:32:07;2.67;;;1.83;;
34296;SDS011;20564;42.902;25.336;2022-12-04T09:34:34;3.60;;;2.20;;
34296;SDS011;20564;42.902;25.336;2022-12-04T09:37:01;2.55;;;1.67;;
34296;SDS011;20564;42.902;25.336;2022-12-04T09:39:28;4.18;;;2.50;;
34296;SDS011;20564;42.902;25.336;2022-12-04T09:44:36;1.48;;;1.38;;
34296;SDS011;20564;42.902;25.336;2022-12-04T09:50:05;3.85;;;2.03;;
34296;SDS011;20564;42.902;25.336;2022-12-04T09:55:14;3.35;;;2.00;;
34296;SDS011;20564;42.902;25.336;2022-12-04T09:57:49;1.92;;;1.42;;
34296;SDS011;20564;42.902;25.336;2022-12-04T10:00:27;2.88;;;2.20;;
34296;SDS011;20564;42.902;25.336;2022-12-04T10:03:06;2.35;;;1.75;;
34296;SDS011;20564;42.902;25.336;2022-12-04T10:08:39;4.95;;;2.35;;
34296;SDS011;20564;42.902;25.336;2022-12-04T10:17:12;2.97;;;1.15;;
34296;SDS011;20564;42.902;25.336;2022-12-04T10:25:20;3.92;;;1.55;;
34296;SDS011;20564;42.902;25.336;2022-12-04T10:30:23;4.05;;;2.08;;
34296;SDS011;20564;42.902;25.336;2022-12-04T10:32:57;4.97;;;1.65;;
34296;SDS011;20564;42.902;25.336;2022-12-04T10:35:29;1.33;;;0.68;;
34296;SDS011;20564;42.902;25.336;2022-12-04T10:38:01;2.80;;;1.48;;
34296;SDS011;20564;42.902;25.336;2022-12-04T10:40:31;3.40;;;1.90;;
34296;SDS011;20564;42.902;25.336;2022-12-04T10:46:11;5.20;;;2.38;;
34296;SDS011;20564;42.902;25.336;2022-12-04T10:48:47;4.10;;;2.33;;
34296;SDS011;20564;42.902;25.336;2022-12-04T10:51:17;3.22;;;2.15;;
34296;SDS011;20564;42.902;25.336;2022-12-04T10:53:47;2.40;;;1.70;;
34296;SDS011;20564;42.902;25.336;2022-12-04T10:56:16;3.40;;;2.30;;
34296;SDS011;20564;42.902;25.336;2022-12-04T10:58:55;9.82;;;5.60;;
34296;SDS011;20564;42.902;25.336;2022-12-04T11:01:23;9.32;;;4.82;;
34296;SDS011;20564;42.902;25.336;2022-12-04T11:06:40;5.85;;;3.00;;
34296;SDS011;20564;42.902;25.336;2022-12-04T11:09:14;6.35;;;2.65;;
34296;SDS011;20564;42.902;25.336;2022-12-04T11:11:48;3.50;;;2.33;;
34296;SDS011;20564;42.902;25.336;2022-12-04T11:14:16;4.03;;;2.08;;
34296;SDS011;20564;42.902;25.336;2022-12-04T11:16:49;2.05;;;1.70;;
34296;SDS011;20564;42.902;25.336;2022-12-04T11:19:31;2.30;;;1.23;;
34296;SDS011;20564;42.902;25.336;2022-12-04T11:22:04;4.25;;;2.22;;
34296;SDS011;20564;42.902;25.336;2022-12-04T11:25:03;1.27;;;0.95;;
34296;SDS011;20564;42.902;25.336;2022-12-04T11:27:31;5.35;;;2.72;;
34296;SDS011;20564;42.902;25.336;2022-12-04T11:30:00;2.72;;;2.00;;
34296;SDS011;20564;42.902;25.336;2022-12-04T11:32:34;7.75;;;2.67;;
34296;SDS011;20564;42.902;25.336;2022-12-04T11:35:12;5.80;;;3.00;;
34296;SDS011;20564;42.902;25.336;2022-12-04T11:37:49;6.95;;;4.03;;
34296;SDS011;20564;42.902;25.336;2022-12-04T11:40:27;5.22;;;2.50;;
34296;SDS011;20564;42.902;25.336;2022-12-04T11:43:02;11.88;;;5.07;;
34296;SDS011;20564;42.902;25.336;2022-12-04T11:45:55;17.85;;;4.18;;
34296;SDS011;20564;42.902;25.336;2022-12-04T11:48:30;10.33;;;2.53;;
34296;SDS011;20564;42.902;25.336;2022-12-04T11:51:15;6.28;;;2.75;;
34296;SDS011;20564;42.902;25.336;2022-12-04T12:00:36;7.35;;;3.38;;
34296;SDS011;20564;42.902;25.336;2022-12-04T12:03:25;6.13;;;2.25;;
34296;SDS011;20564;42.902;25.336;2022-12-04T12:11:57;7.35;;;5.03;;
34296;SDS011;20564;42.902;25.336;2022-12-04T12:20:31;24.50;;;16.02;;
34296;SDS011;20564;42.902;25.336;2022-12-04T12:26:16;5.13;;;2.50;;
34296;SDS011;20564;42.902;25.336;2022-12-04T12:29:06;3.28;;;1.58;;
34296;SDS011;20564;42.902;25.336;2022-12-04T12:34:54;6.57;;;2.97;;
34296;SDS011;20564;42.902;25.336;2022-12-04T12:37:27;4.67;;;1.63;;
34296;SDS011;20564;42.902;25.336;2022-12-04T12:40:46;1.88;;;1.25;;
34296;SDS011;20564;42.902;25.336;2022-12-04T12:43:30;6.53;;;3.42;;
34296;SDS011;20564;42.902;25.336;2022-12-04T12:46:01;8.00;;;3.65;;
34296;SDS011;20564;42.902;25.336;2022-12-04T12:54:38;2.53;;;1.63;;
34296;SDS011;20564;42.902;25.336;2022-12-04T13:02:42;2.88;;;2.00;;
34296;SDS011;20564;42.902;25.336;2022-12-04T13:05:13;7.60;;;2.97;;
34296;SDS011;20564;42.902;25.336;2022-12-04T13:08:00;2.70;;;2.05;;
34296;SDS011;20564;42.902;25.336;2022-12-04T13:10:52;5.25;;;3.47;;
34296;SDS011;20564;42.902;25.336;2022-12-04T13:13:35;3.90;;;2.25;;
34296;SDS011;20564;42.902;25.336;2022-12-04T13:16:12;6.57;;;3.45;;
34296;SDS011;20564;42.902;25.336;2022-12-04T13:18:52;17.05;;;6.15;;
34296;SDS011;20564;42.902;25.336;2022-12-04T13:27:10;3.63;;;2.67;;
34296;SDS011;20564;42.902;25.336;2022-12-04T13:35:25;4.25;;;1.88;;
34296;SDS011;20564;42.902;25.336;2022-12-04T13:38:07;6.68;;;2.65;;
34296;SDS011;20564;42.902;25.336;2022-12-04T13:40:56;7.25;;;4.90;;
34296;SDS011;20564;42.902;25.336;2022-12-04T13:43:35;9.45;;;5.28;;
34296;SDS011;20564;42.902;25.336;2022-12-04T13:46:32;8.50;;;4.70;;
34296;SDS011;20564;42.902;25.336;2022-12-04T13:49:09;6.75;;;4.43;;
34296;SDS011;20564;42.902;25.336;2022-12-04T13:51:57;8.00;;;4.20;;
34296;SDS011;20564;42.902;25.336;2022-12-04T13:54:29;10.13;;;5.85;;
34296;SDS011;20564;42.902;25.336;2022-12-04T13:59:48;7.88;;;4.60;;
34296;SDS011;20564;42.902;25.336;2022-12-04T14:02:30;9.65;;;4.03;;
34296;SDS011;20564;42.902;25.336;2022-12-04T14:05:05;7.05;;;4.28;;
34296;SDS011;20564;42.902;25.336;2022-12-04T14:07:36;11.77;;;6.22;;
34296;SDS011;20564;42.902;25.336;2022-12-04T14:12:42;5.70;;;3.75;;
34296;SDS011;20564;42.902;25.336;2022-12-04T14:15:32;6.70;;;3.63;;
34296;SDS011;20564;42.902;25.336;2022-12-04T14:20:41;8.35;;;5.10;;
34296;SDS011;20564;42.902;25.336;2022-12-04T14:25:47;12.05;;;4.40;;
34296;SDS011;20564;42.902;25.336;2022-12-04T14:33:49;2.85;;;2.00;;
34296;SDS011;20564;42.902;25.336;2022-12-04T14:36:24;3.40;;;1.63;;
34296;SDS011;20564;42.902;25.336;2022-12-04T14:41:37;4.53;;;2.37;;
34296;SDS011;20564;42.902;25.336;2022-12-04T14:44:05;2.38;;;1.95;;
34296;SDS011;20564;42.902;25.336;2022-12-04T14:54:35;7.00;;;3.13;;
34296;SDS011;20564;42.902;25.336;2022-12-04T15:00:05;12.63;;;8.00;;
34296;SDS011;20564;42.902;25.336;2022-12-04T15:02:45;5.45;;;3.00;;
34296;SDS011;20564;42.902;25.336;2022-12-04T15:05:29;8.15;;;4.80;;
34296;SDS011;20564;42.902;25.336;2022-12-04T15:07:59;9.90;;;4.38;;
34296;SDS011;20564;42.902;25.336;2022-12-04T15:10:29;5.15;;;3.00;;
34296;SDS011;20564;42.902;25.336;2022-12-04T15:13:29;9.95;;;5.88;;
34296;SDS011;20564;42.902;25.336;2022-12-04T15:16:20;6.90;;;3.15;;
34296;SDS011;20564;42.902;25.336;2022-12-04T15:18:57;4.63;;;2.70;;
34296;SDS011;20564;42.902;25.336;2022-12-04T15:21:27;3.88;;;2.40;;
34296;SDS011;20564;42.902;25.336;2022-12-04T15:24:07;2.55;;;1.65;;
34296;SDS011;20564;42.902;25.336;2022-12-04T15:26:35;5.05;;;2.53;;
34296;SDS011;20564;42.902;25.336;2022-12-04T15:29:04;2.83;;;1.70;;
34296;SDS011;20564;42.902;25.336;2022-12-04T15:31:38;2.05;;;1.10;;
34296;SDS011;20564;42.902;25.336;2022-12-04T15:34:14;11.55;;;3.15;;
34296;SDS011;20564;42.902;25.336;2022-12-04T15:36:48;4.15;;;2.25;;
34296;SDS011;20564;42.902;25.336;2022-12-04T15:39:21;4.07;;;1.75;;
34296;SDS011;20564;42.902;25.336;2022-12-04T15:42:02;4.88;;;2.05;;
34296;SDS011;20564;42.902;25.336;2022-12-04T15:49:50;17.75;;;3.30;;
34296;SDS011;20564;42.902;25.336;2022-12-04T15:52:21;3.07;;;1.87;;
34296;SDS011;20564;42.902;25.336;2022-12-04T15:54:52;3.35;;;1.95;;
34296;SDS011;20564;42.902;25.336;2022-12-04T16:00:00;4.97;;;2.03;;
34296;SDS011;20564;42.902;25.336;2022-12-04T16:02:32;4.95;;;2.13;;
34296;SDS011;20564;42.902;25.336;2022-12-04T16:07:55;4.82;;;1.98;;
34296;SDS011;20564;42.902;25.336;2022-12-04T16:10:42;3.23;;;1.90;;
34296;SDS011;20564;42.902;25.336;2022-12-04T16:13:24;3.95;;;1.85;;
34296;SDS011;20564;42.902;25.336;2022-12-04T16:15:54;4.30;;;2.15;;
34296;SDS011;20564;42.902;25.336;2022-12-04T16:18:24;7.00;;;3.55;;
34296;SDS011;20564;42.902;25.336;2022-12-04T16:20:52;6.00;;;3.17;;
34296;SDS011;20564;42.902;25.336;2022-12-04T16:23:21;6.38;;;3.13;;
34296;SDS011;20564;42.902;25.336;2022-12-04T16:25:50;1.45;;;1.35;;
34296;SDS011;20564;42.902;25.336;2022-12-04T16:28:19;3.72;;;2.08;;
34296;SDS011;20564;42.902;25.336;2022-12-04T16:30:47;3.92;;;2.38;;
34296;SDS011;20564;42.902;25.336;2022-12-04T16:33:17;7.75;;;3.30;;
34296;SDS011;20564;42.902;25.336;2022-12-04T16:35:45;4.45;;;2.67;;
34296;SDS011;20564;42.902;25.336;2022-12-04T16:38:13;7.43;;;4.72;;
34296;SDS011;20564;42.902;25.336;2022-12-04T16:40:43;7.45;;;4.55;;
34296;SDS011;20564;42.902;25.336;2022-12-04T16:43:12;6.53;;;4.00;;
34296;SDS011;20564;42.902;25.336;2022-12-04T16:45:43;7.90;;;3.75;;
34296;SDS011;20564;42.902;25.336;2022-12-04T16:48:16;7.22;;;4.32;;
34296;SDS011;20564;42.902;25.336;2022-12-04T16:50:44;4.13;;;2.63;;
34296;SDS011;20564;42.902;25.336;2022-12-04T16:53:16;6.43;;;4.15;;
34296;SDS011;20564;42.902;25.336;2022-12-04T16:55:46;13.45;;;6.35;;
34296;SDS011;20564;42.902;25.336;2022-12-04T16:58:15;11.18;;;6.55;;
34296;SDS011;20564;42.902;25.336;2022-12-04T17:00:44;10.55;;;5.03;;
34296;SDS011;20564;42.902;25.336;2022-12-04T17:03:24;9.68;;;5.88;;
34296;SDS011;20564;42.902;25.336;2022-12-04T17:05:54;22.92;;;6.70;;
34296;SDS011;20564;42.902;25.336;2022-12-04T17:08:22;8.77;;;4.63;;
34296;SDS011;20564;42.902;25.336;2022-12-04T17:10:50;15.10;;;5.85;;
34296;SDS011;20564;42.902;25.336;2022-12-04T17:13:18;12.45;;;6.20;;
34296;SDS011;20564;42.902;25.336;2022-12-04T17:15:47;15.05;;;8.23;;
34296;SDS011;20564;42.902;25.336;2022-12-04T17:18:14;15.07;;;6.65;;
34296;SDS011;20564;42.902;25.336;2022-12-04T17:20:47;14.30;;;7.57;;
34296;SDS011;20564;42.902;25.336;2022-12-04T17:23:33;9.38;;;4.53;;
34296;SDS011;20564;42.902;25.336;2022-12-04T17:26:14;9.05;;;6.43;;
34296;SDS011;20564;42.902;25.336;2022-12-04T17:29:01;18.50;;;9.45;;
34296;SDS011;20564;42.902;25.336;2022-12-04T17:31:31;10.52;;;6.70;;
34296;SDS011;20564;42.902;25.336;2022-12-04T17:34:16;7.88;;;4.13;;
34296;SDS011;20564;42.902;25.336;2022-12-04T17:37:08;6.72;;;3.33;;
34296;SDS011;20564;42.902;25.336;2022-12-04T17:39:55;7.50;;;3.70;;
34296;SDS011;20564;42.902;25.336;2022-12-04T17:42:34;2.88;;;2.00;;
34296;SDS011;20564;42.902;25.336;2022-12-04T17:45:17;5.85;;;3.53;;
34296;SDS011;20564;42.902;25.336;2022-12-04T17:48:07;4.20;;;2.42;;
34296;SDS011;20564;42.902;25.336;2022-12-04T17:50:45;4.53;;;3.20;;
34296;SDS011;20564;42.902;25.336;2022-12-04T17:53:56;3.47;;;1.98;;